sensor_id;sensor_type;location;lat;lon;timestamp;P1;durP1;ratioP1;P2;durP2;ratioP2
64832;SDS011;51290;45.060;38.948;2023-03-15T00:00:29;2.03;;;1.58;;
64832;SDS011;51290;45.060;38.948;2023-03-15T00:02:55;3.78;;;2.60;;
64832;SDS011;51290;45.060;38.948;2023-03-15T00:05:21;2.92;;;2.17;;
64832;SDS011;51290;45.060;38.948;2023-03-15T00:07:47;4.35;;;2.95;;
64832;SDS011;51290;45.060;38.948;2023-03-15T00:10:13;3.85;;;2.50;;
64832;SDS011;51290;45.060;38.948;2023-03-15T00:12:39;1.98;;;1.85;;
64832;SDS011;51290;45.060;38.948;2023-03-15T00:15:07;2.83;;;1.60;;
64832;SDS011;51290;45.060;38.948;2023-03-15T00:17:34;3.20;;;2.30;;
64832;SDS011;51290;45.060;38.948;2023-03-15T00:20:00;4.95;;;2.55;;
64832;SDS011;51290;45.060;38.948;2023-03-15T00:22:26;4.00;;;2.72;;
64832;SDS011;51290;45.060;38.948;2023-03-15T00:24:52;3.45;;;2.35;;
64832;SDS011;51290;45.060;38.948;2023-03-15T00:27:18;4.15;;;2.63;;
64832;SDS011;51290;45.060;38.948;2023-03-15T00:29:44;4.53;;;2.80;;
64832;SDS011;51290;45.060;38.948;2023-03-15T00:32:10;5.40;;;2.70;;
64832;SDS011;51290;45.060;38.948;2023-03-15T00:34:37;5.95;;;2.90;;
64832;SDS011;51290;45.060;38.948;2023-03-15T00:37:03;4.72;;;2.63;;
64832;SDS011;51290;45.060;38.948;2023-03-15T00:39:29;9.20;;;2.92;;
64832;SDS011;51290;45.060;38.948;2023-03-15T00:41:55;2.80;;;1.95;;
64832;SDS011;51290;45.060;38.948;2023-03-15T00:44:22;4.18;;;3.00;;
64832;SDS011;51290;45.060;38.948;2023-03-15T00:46:49;4.57;;;3.08;;
64832;SDS011;51290;45.060;38.948;2023-03-15T00:49:15;2.85;;;2.15;;
64832;SDS011;51290;45.060;38.948;2023-03-15T00:51:41;7.53;;;2.50;;
64832;SDS011;51290;45.060;38.948;2023-03-15T00:54:07;1.80;;;1.55;;
64832;SDS011;51290;45.060;38.948;2023-03-15T00:56:38;5.57;;;2.90;;
64832;SDS011;51290;45.060;38.948;2023-03-15T00:59:04;3.33;;;2.33;;
64832;SDS011;51290;45.060;38.948;2023-03-15T01:01:30;3.90;;;2.40;;
64832;SDS011;51290;45.060;38.948;2023-03-15T01:03:56;5.82;;;2.78;;
64832;SDS011;51290;45.060;38.948;2023-03-15T01:06:24;5.95;;;3.10;;
64832;SDS011;51290;45.060;38.948;2023-03-15T01:08:51;2.13;;;1.90;;
64832;SDS011;51290;45.060;38.948;2023-03-15T01:11:22;3.42;;;2.20;;
64832;SDS011;51290;45.060;38.948;2023-03-15T01:13:51;5.47;;;3.20;;
64832;SDS011;51290;45.060;38.948;2023-03-15T01:16:18;4.82;;;2.67;;
64832;SDS011;51290;45.060;38.948;2023-03-15T01:18:45;4.45;;;2.72;;
64832;SDS011;51290;45.060;38.948;2023-03-15T01:21:11;2.95;;;2.10;;
64832;SDS011;51290;45.060;38.948;2023-03-15T01:23:39;4.55;;;2.10;;
64832;SDS011;51290;45.060;38.948;2023-03-15T01:26:06;5.95;;;3.22;;
64832;SDS011;51290;45.060;38.948;2023-03-15T01:28:34;4.53;;;2.65;;
64832;SDS011;51290;45.060;38.948;2023-03-15T01:31:01;3.47;;;2.25;;
64832;SDS011;51290;45.060;38.948;2023-03-15T01:33:27;3.15;;;2.10;;
64832;SDS011;51290;45.060;38.948;2023-03-15T01:36:01;1.92;;;1.52;;
64832;SDS011;51290;45.060;38.948;2023-03-15T01:38:33;2.60;;;1.95;;
64832;SDS011;51290;45.060;38.948;2023-03-15T01:40:59;7.50;;;3.58;;
64832;SDS011;51290;45.060;38.948;2023-03-15T01:43:26;4.15;;;2.38;;
64832;SDS011;51290;45.060;38.948;2023-03-15T01:48:51;6.35;;;3.50;;
64832;SDS011;51290;45.060;38.948;2023-03-15T01:54:05;5.35;;;2.63;;
64832;SDS011;51290;45.060;38.948;2023-03-15T01:56:33;2.63;;;2.28;;
64832;SDS011;51290;45.060;38.948;2023-03-15T01:59:03;3.28;;;2.00;;
64832;SDS011;51290;45.060;38.948;2023-03-15T02:01:33;3.80;;;2.70;;
64832;SDS011;51290;45.060;38.948;2023-03-15T02:04:11;2.30;;;1.55;;
64832;SDS011;51290;45.060;38.948;2023-03-15T02:06:43;4.82;;;3.13;;
64832;SDS011;51290;45.060;38.948;2023-03-15T02:09:13;2.13;;;1.65;;
64832;SDS011;51290;45.060;38.948;2023-03-15T02:11:43;5.63;;;2.65;;
64832;SDS011;51290;45.060;38.948;2023-03-15T02:14:10;3.97;;;1.75;;
64832;SDS011;51290;45.060;38.948;2023-03-15T02:16:40;6.22;;;3.13;;
64832;SDS011;51290;45.060;38.948;2023-03-15T02:19:11;2.45;;;2.05;;
64832;SDS011;51290;45.060;38.948;2023-03-15T02:21:54;2.83;;;2.33;;
64832;SDS011;51290;45.060;38.948;2023-03-15T02:24:42;2.13;;;1.92;;
64832;SDS011;51290;45.060;38.948;2023-03-15T02:27:26;5.80;;;2.47;;
64832;SDS011;51290;45.060;38.948;2023-03-15T02:29:55;3.50;;;2.75;;
64832;SDS011;51290;45.060;38.948;2023-03-15T02:32:21;8.00;;;3.05;;
64832;SDS011;51290;45.060;38.948;2023-03-15T02:34:48;4.72;;;3.00;;
64832;SDS011;51290;45.060;38.948;2023-03-15T02:37:14;5.18;;;3.47;;
64832;SDS011;51290;45.060;38.948;2023-03-15T02:39:40;3.58;;;2.78;;
64832;SDS011;51290;45.060;38.948;2023-03-15T02:42:06;4.20;;;3.08;;
64832;SDS011;51290;45.060;38.948;2023-03-15T02:44:32;4.90;;;3.22;;
64832;SDS011;51290;45.060;38.948;2023-03-15T02:47:05;6.55;;;4.53;;
64832;SDS011;51290;45.060;38.948;2023-03-15T02:49:36;7.00;;;4.10;;
64832;SDS011;51290;45.060;38.948;2023-03-15T02:52:07;9.68;;;4.00;;
64832;SDS011;51290;45.060;38.948;2023-03-15T02:54:34;5.38;;;3.50;;
64832;SDS011;51290;45.060;38.948;2023-03-15T02:57:01;6.40;;;3.72;;
64832;SDS011;51290;45.060;38.948;2023-03-15T02:59:28;6.97;;;4.13;;
64832;SDS011;51290;45.060;38.948;2023-03-15T03:01:54;7.97;;;4.30;;
64832;SDS011;51290;45.060;38.948;2023-03-15T03:04:21;8.80;;;4.72;;
64832;SDS011;51290;45.060;38.948;2023-03-15T03:06:47;4.47;;;3.65;;
64832;SDS011;51290;45.060;38.948;2023-03-15T03:09:18;6.13;;;3.90;;
64832;SDS011;51290;45.060;38.948;2023-03-15T03:11:44;10.85;;;5.95;;
64832;SDS011;51290;45.060;38.948;2023-03-15T03:14:11;11.52;;;5.22;;
64832;SDS011;51290;45.060;38.948;2023-03-15T03:16:41;9.98;;;4.95;;
64832;SDS011;51290;45.060;38.948;2023-03-15T03:19:08;11.50;;;6.03;;
64832;SDS011;51290;45.060;38.948;2023-03-15T03:21:38;7.10;;;4.82;;
64832;SDS011;51290;45.060;38.948;2023-03-15T03:24:04;10.52;;;5.65;;
64832;SDS011;51290;45.060;38.948;2023-03-15T03:26:30;8.27;;;5.63;;
64832;SDS011;51290;45.060;38.948;2023-03-15T03:28:57;8.20;;;5.30;;
64832;SDS011;51290;45.060;38.948;2023-03-15T03:31:26;10.57;;;5.63;;
64832;SDS011;51290;45.060;38.948;2023-03-15T03:33:54;7.28;;;4.57;;
64832;SDS011;51290;45.060;38.948;2023-03-15T03:36:22;9.63;;;5.60;;
64832;SDS011;51290;45.060;38.948;2023-03-15T03:38:49;11.05;;;6.78;;
64832;SDS011;51290;45.060;38.948;2023-03-15T03:41:16;7.65;;;5.22;;
64832;SDS011;51290;45.060;38.948;2023-03-15T03:43:42;8.40;;;5.35;;
64832;SDS011;51290;45.060;38.948;2023-03-15T03:46:09;8.13;;;4.45;;
64832;SDS011;51290;45.060;38.948;2023-03-15T03:48:39;5.65;;;3.95;;
64832;SDS011;51290;45.060;38.948;2023-03-15T03:51:05;10.07;;;6.57;;
64832;SDS011;51290;45.060;38.948;2023-03-15T03:53:31;6.78;;;4.30;;
64832;SDS011;51290;45.060;38.948;2023-03-15T03:55:58;10.30;;;7.00;;
64832;SDS011;51290;45.060;38.948;2023-03-15T03:58:24;10.57;;;5.35;;
64832;SDS011;51290;45.060;38.948;2023-03-15T04:00:57;7.47;;;5.50;;
64832;SDS011;51290;45.060;38.948;2023-03-15T04:03:28;7.60;;;4.97;;
64832;SDS011;51290;45.060;38.948;2023-03-15T04:06:02;10.73;;;6.03;;
64832;SDS011;51290;45.060;38.948;2023-03-15T04:08:31;11.48;;;6.30;;
64832;SDS011;51290;45.060;38.948;2023-03-15T04:10:57;13.82;;;8.27;;
64832;SDS011;51290;45.060;38.948;2023-03-15T04:13:26;13.15;;;6.85;;
64832;SDS011;51290;45.060;38.948;2023-03-15T04:15:52;13.55;;;8.18;;
64832;SDS011;51290;45.060;38.948;2023-03-15T04:18:24;17.08;;;7.80;;
64832;SDS011;51290;45.060;38.948;2023-03-15T04:20:51;6.65;;;5.25;;
64832;SDS011;51290;45.060;38.948;2023-03-15T04:23:20;7.50;;;5.07;;
64832;SDS011;51290;45.060;38.948;2023-03-15T04:26:07;14.57;;;7.63;;
64832;SDS011;51290;45.060;38.948;2023-03-15T04:29:04;9.05;;;4.88;;
64832;SDS011;51290;45.060;38.948;2023-03-15T04:31:53;9.38;;;5.95;;
64832;SDS011;51290;45.060;38.948;2023-03-15T04:34:44;12.95;;;7.72;;
64832;SDS011;51290;45.060;38.948;2023-03-15T04:37:35;12.70;;;7.80;;
64832;SDS011;51290;45.060;38.948;2023-03-15T04:40:20;9.63;;;6.75;;
64832;SDS011;51290;45.060;38.948;2023-03-15T04:43:11;8.93;;;5.25;;
64832;SDS011;51290;45.060;38.948;2023-03-15T04:45:55;12.85;;;6.30;;
64832;SDS011;51290;45.060;38.948;2023-03-15T04:48:43;9.32;;;6.47;;
64832;SDS011;51290;45.060;38.948;2023-03-15T04:51:27;13.27;;;7.40;;
64832;SDS011;51290;45.060;38.948;2023-03-15T04:54:26;11.05;;;5.68;;
64832;SDS011;51290;45.060;38.948;2023-03-15T04:57:15;9.30;;;5.88;;
64832;SDS011;51290;45.060;38.948;2023-03-15T04:59:48;12.38;;;7.25;;
64832;SDS011;51290;45.060;38.948;2023-03-15T05:02:38;5.60;;;3.78;;
64832;SDS011;51290;45.060;38.948;2023-03-15T05:05:20;15.63;;;9.50;;
64832;SDS011;51290;45.060;38.948;2023-03-15T05:08:12;10.40;;;6.55;;
64832;SDS011;51290;45.060;38.948;2023-03-15T05:11:02;10.65;;;7.30;;
64832;SDS011;51290;45.060;38.948;2023-03-15T05:13:54;18.35;;;9.85;;
64832;SDS011;51290;45.060;38.948;2023-03-15T05:16:32;10.75;;;7.45;;
64832;SDS011;51290;45.060;38.948;2023-03-15T05:19:21;13.13;;;6.35;;
64832;SDS011;51290;45.060;38.948;2023-03-15T05:22:08;14.02;;;7.07;;
64832;SDS011;51290;45.060;38.948;2023-03-15T05:24:37;16.50;;;7.00;;
64832;SDS011;51290;45.060;38.948;2023-03-15T05:27:24;14.32;;;7.88;;
64832;SDS011;51290;45.060;38.948;2023-03-15T05:30:08;9.02;;;6.65;;
64832;SDS011;51290;45.060;38.948;2023-03-15T05:32:58;9.35;;;6.88;;
64832;SDS011;51290;45.060;38.948;2023-03-15T05:35:47;14.30;;;9.13;;
64832;SDS011;51290;45.060;38.948;2023-03-15T05:38:31;11.75;;;6.18;;
64832;SDS011;51290;45.060;38.948;2023-03-15T05:40:57;21.23;;;7.60;;
64832;SDS011;51290;45.060;38.948;2023-03-15T05:43:37;17.60;;;9.23;;
64832;SDS011;51290;45.060;38.948;2023-03-15T05:46:23;10.65;;;6.10;;
64832;SDS011;51290;45.060;38.948;2023-03-15T05:49:02;15.18;;;7.13;;
64832;SDS011;51290;45.060;38.948;2023-03-15T05:51:51;14.07;;;9.20;;
64832;SDS011;51290;45.060;38.948;2023-03-15T05:54:37;11.23;;;6.47;;
64832;SDS011;51290;45.060;38.948;2023-03-15T05:57:21;16.15;;;7.75;;
64832;SDS011;51290;45.060;38.948;2023-03-15T06:00:04;11.43;;;6.07;;
64832;SDS011;51290;45.060;38.948;2023-03-15T06:05:21;12.57;;;7.72;;
64832;SDS011;51290;45.060;38.948;2023-03-15T06:07:48;16.15;;;6.28;;
64832;SDS011;51290;45.060;38.948;2023-03-15T06:10:16;14.52;;;9.00;;
64832;SDS011;51290;45.060;38.948;2023-03-15T06:12:43;8.88;;;6.35;;
64832;SDS011;51290;45.060;38.948;2023-03-15T06:15:09;14.73;;;8.30;;
64832;SDS011;51290;45.060;38.948;2023-03-15T06:17:35;12.20;;;7.55;;
64832;SDS011;51290;45.060;38.948;2023-03-15T06:20:02;13.50;;;7.22;;
64832;SDS011;51290;45.060;38.948;2023-03-15T06:22:30;11.93;;;7.85;;
64832;SDS011;51290;45.060;38.948;2023-03-15T06:25:00;22.40;;;8.82;;
64832;SDS011;51290;45.060;38.948;2023-03-15T06:27:28;12.85;;;8.20;;
64832;SDS011;51290;45.060;38.948;2023-03-15T06:29:55;14.98;;;8.50;;
64832;SDS011;51290;45.060;38.948;2023-03-15T06:32:23;11.23;;;6.70;;
64832;SDS011;51290;45.060;38.948;2023-03-15T06:34:49;12.98;;;7.78;;
64832;SDS011;51290;45.060;38.948;2023-03-15T06:37:16;13.57;;;8.32;;
64832;SDS011;51290;45.060;38.948;2023-03-15T06:39:42;10.55;;;7.18;;
64832;SDS011;51290;45.060;38.948;2023-03-15T06:42:09;11.93;;;6.60;;
64832;SDS011;51290;45.060;38.948;2023-03-15T06:44:39;12.40;;;7.18;;
64832;SDS011;51290;45.060;38.948;2023-03-15T06:47:07;12.45;;;6.68;;
64832;SDS011;51290;45.060;38.948;2023-03-15T06:49:36;12.85;;;7.60;;
64832;SDS011;51290;45.060;38.948;2023-03-15T06:52:03;9.52;;;5.95;;
64832;SDS011;51290;45.060;38.948;2023-03-15T06:54:31;10.65;;;6.88;;
64832;SDS011;51290;45.060;38.948;2023-03-15T06:56:58;25.63;;;7.43;;
64832;SDS011;51290;45.060;38.948;2023-03-15T06:59:24;13.98;;;8.43;;
64832;SDS011;51290;45.060;38.948;2023-03-15T07:01:50;12.57;;;6.05;;
64832;SDS011;51290;45.060;38.948;2023-03-15T07:04:16;13.48;;;7.82;;
64832;SDS011;51290;45.060;38.948;2023-03-15T07:06:42;7.78;;;5.47;;
64832;SDS011;51290;45.060;38.948;2023-03-15T07:09:08;15.07;;;8.35;;
64832;SDS011;51290;45.060;38.948;2023-03-15T07:11:34;11.10;;;7.13;;
64832;SDS011;51290;45.060;38.948;2023-03-15T07:14:00;14.93;;;7.72;;
64832;SDS011;51290;45.060;38.948;2023-03-15T07:16:26;12.55;;;7.28;;
64832;SDS011;51290;45.060;38.948;2023-03-15T07:18:52;14.82;;;8.50;;
64832;SDS011;51290;45.060;38.948;2023-03-15T07:21:20;12.48;;;6.97;;
64832;SDS011;51290;45.060;38.948;2023-03-15T07:23:46;15.65;;;7.82;;
64832;SDS011;51290;45.060;38.948;2023-03-15T07:26:12;11.32;;;5.97;;
64832;SDS011;51290;45.060;38.948;2023-03-15T07:28:38;8.32;;;6.20;;
64832;SDS011;51290;45.060;38.948;2023-03-15T07:31:04;12.95;;;5.82;;
64832;SDS011;51290;45.060;38.948;2023-03-15T07:33:31;9.10;;;5.72;;
64832;SDS011;51290;45.060;38.948;2023-03-15T07:35:58;16.80;;;7.15;;
64832;SDS011;51290;45.060;38.948;2023-03-15T07:38:26;10.85;;;7.80;;
64832;SDS011;51290;45.060;38.948;2023-03-15T07:40:55;13.43;;;7.88;;
64832;SDS011;51290;45.060;38.948;2023-03-15T07:43:22;12.23;;;7.53;;
64832;SDS011;51290;45.060;38.948;2023-03-15T07:45:57;9.63;;;6.55;;
64832;SDS011;51290;45.060;38.948;2023-03-15T07:48:23;16.42;;;6.75;;
64832;SDS011;51290;45.060;38.948;2023-03-15T07:50:49;12.55;;;7.70;;
64832;SDS011;51290;45.060;38.948;2023-03-15T07:53:15;14.13;;;6.40;;
64832;SDS011;51290;45.060;38.948;2023-03-15T07:55:41;10.98;;;6.85;;
64832;SDS011;51290;45.060;38.948;2023-03-15T07:58:07;12.23;;;7.10;;
64832;SDS011;51290;45.060;38.948;2023-03-15T08:00:34;12.20;;;7.75;;
64832;SDS011;51290;45.060;38.948;2023-03-15T08:03:00;17.08;;;6.65;;
64832;SDS011;51290;45.060;38.948;2023-03-15T08:05:26;10.90;;;7.20;;
64832;SDS011;51290;45.060;38.948;2023-03-15T08:07:52;12.57;;;7.22;;
64832;SDS011;51290;45.060;38.948;2023-03-15T08:10:18;9.77;;;6.40;;
64832;SDS011;51290;45.060;38.948;2023-03-15T08:12:44;12.27;;;6.78;;
64832;SDS011;51290;45.060;38.948;2023-03-15T08:15:10;12.68;;;7.60;;
64832;SDS011;51290;45.060;38.948;2023-03-15T08:17:37;15.30;;;8.18;;
64832;SDS011;51290;45.060;38.948;2023-03-15T08:20:05;11.85;;;8.73;;
64832;SDS011;51290;45.060;38.948;2023-03-15T08:22:38;10.85;;;7.13;;
64832;SDS011;51290;45.060;38.948;2023-03-15T08:25:09;11.40;;;7.07;;
64832;SDS011;51290;45.060;38.948;2023-03-15T08:27:37;14.70;;;7.03;;
64832;SDS011;51290;45.060;38.948;2023-03-15T08:30:03;11.93;;;6.55;;
64832;SDS011;51290;45.060;38.948;2023-03-15T08:32:33;11.38;;;7.07;;
64832;SDS011;51290;45.060;38.948;2023-03-15T08:34:59;10.85;;;6.65;;
64832;SDS011;51290;45.060;38.948;2023-03-15T08:37:25;11.73;;;7.25;;
64832;SDS011;51290;45.060;38.948;2023-03-15T08:39:51;14.40;;;6.78;;
64832;SDS011;51290;45.060;38.948;2023-03-15T08:42:28;12.55;;;6.53;;
64832;SDS011;51290;45.060;38.948;2023-03-15T08:44:54;8.88;;;6.25;;
64832;SDS011;51290;45.060;38.948;2023-03-15T08:47:24;14.20;;;7.57;;
64832;SDS011;51290;45.060;38.948;2023-03-15T08:49:50;13.85;;;8.18;;
64832;SDS011;51290;45.060;38.948;2023-03-15T08:52:19;11.15;;;7.38;;
64832;SDS011;51290;45.060;38.948;2023-03-15T08:54:46;11.02;;;6.43;;
64832;SDS011;51290;45.060;38.948;2023-03-15T08:57:13;13.88;;;8.20;;
64832;SDS011;51290;45.060;38.948;2023-03-15T08:59:39;12.77;;;7.93;;
64832;SDS011;51290;45.060;38.948;2023-03-15T09:02:05;13.13;;;6.03;;
64832;SDS011;51290;45.060;38.948;2023-03-15T09:04:33;10.25;;;6.82;;
64832;SDS011;51290;45.060;38.948;2023-03-15T09:06:59;12.60;;;7.18;;
64832;SDS011;51290;45.060;38.948;2023-03-15T09:09:25;11.00;;;6.60;;
64832;SDS011;51290;45.060;38.948;2023-03-15T09:11:51;8.70;;;5.85;;
64832;SDS011;51290;45.060;38.948;2023-03-15T09:14:17;10.75;;;6.95;;
64832;SDS011;51290;45.060;38.948;2023-03-15T09:16:43;10.15;;;6.82;;
64832;SDS011;51290;45.060;38.948;2023-03-15T09:19:09;13.95;;;7.60;;
64832;SDS011;51290;45.060;38.948;2023-03-15T09:21:35;12.45;;;5.85;;
64832;SDS011;51290;45.060;38.948;2023-03-15T09:24:01;9.00;;;6.13;;
64832;SDS011;51290;45.060;38.948;2023-03-15T09:26:28;10.43;;;6.55;;
64832;SDS011;51290;45.060;38.948;2023-03-15T09:28:54;10.50;;;6.07;;
64832;SDS011;51290;45.060;38.948;2023-03-15T09:31:20;9.30;;;6.53;;
64832;SDS011;51290;45.060;38.948;2023-03-15T09:33:46;14.13;;;7.60;;
64832;SDS011;51290;45.060;38.948;2023-03-15T09:36:12;14.70;;;8.45;;
64832;SDS011;51290;45.060;38.948;2023-03-15T09:38:38;12.30;;;7.40;;
64832;SDS011;51290;45.060;38.948;2023-03-15T09:41:10;8.10;;;5.57;;
64832;SDS011;51290;45.060;38.948;2023-03-15T09:52:31;13.07;;;7.07;;
64832;SDS011;51290;45.060;38.948;2023-03-15T09:55:20;11.60;;;6.68;;
64832;SDS011;51290;45.060;38.948;2023-03-15T10:00:32;9.90;;;6.40;;
64832;SDS011;51290;45.060;38.948;2023-03-15T10:03:02;10.23;;;6.53;;
64832;SDS011;51290;45.060;38.948;2023-03-15T10:05:34;11.90;;;7.95;;
64832;SDS011;51290;45.060;38.948;2023-03-15T10:08:11;10.27;;;6.60;;
64832;SDS011;51290;45.060;38.948;2023-03-15T10:10:41;14.40;;;7.85;;
64832;SDS011;51290;45.060;38.948;2023-03-15T10:19:02;10.60;;;6.38;;
64832;SDS011;51290;45.060;38.948;2023-03-15T10:21:57;10.95;;;6.20;;
64832;SDS011;51290;45.060;38.948;2023-03-15T10:27:20;14.48;;;6.93;;
64832;SDS011;51290;45.060;38.948;2023-03-15T10:29:50;9.90;;;6.20;;
64832;SDS011;51290;45.060;38.948;2023-03-15T10:32:21;9.95;;;6.28;;
64832;SDS011;51290;45.060;38.948;2023-03-15T10:34:51;8.40;;;5.20;;
64832;SDS011;51290;45.060;38.948;2023-03-15T10:37:22;12.27;;;7.82;;
64832;SDS011;51290;45.060;38.948;2023-03-15T10:39:50;14.68;;;6.97;;
64832;SDS011;51290;45.060;38.948;2023-03-15T10:42:23;10.43;;;6.53;;
64832;SDS011;51290;45.060;38.948;2023-03-15T10:44:49;13.50;;;6.20;;
64832;SDS011;51290;45.060;38.948;2023-03-15T10:47:15;11.00;;;6.35;;
64832;SDS011;51290;45.060;38.948;2023-03-15T10:49:46;11.23;;;5.20;;
64832;SDS011;51290;45.060;38.948;2023-03-15T10:55:06;10.00;;;6.13;;
64832;SDS011;51290;45.060;38.948;2023-03-15T10:57:40;11.00;;;6.45;;
64832;SDS011;51290;45.060;38.948;2023-03-15T11:05:40;12.82;;;6.78;;
64832;SDS011;51290;45.060;38.948;2023-03-15T11:08:37;11.48;;;6.18;;
64832;SDS011;51290;45.060;38.948;2023-03-15T11:11:07;11.90;;;7.78;;
64832;SDS011;51290;45.060;38.948;2023-03-15T11:13:35;14.43;;;7.78;;
64832;SDS011;51290;45.060;38.948;2023-03-15T11:16:18;15.82;;;7.57;;
64832;SDS011;51290;45.060;38.948;2023-03-15T11:19:01;11.68;;;7.07;;
64832;SDS011;51290;45.060;38.948;2023-03-15T11:21:30;13.75;;;6.72;;
64832;SDS011;51290;45.060;38.948;2023-03-15T11:24:03;12.23;;;7.45;;
64832;SDS011;51290;45.060;38.948;2023-03-15T11:26:32;10.80;;;6.68;;
64832;SDS011;51290;45.060;38.948;2023-03-15T11:29:16;12.45;;;5.80;;
64832;SDS011;51290;45.060;38.948;2023-03-15T11:31:47;14.40;;;6.80;;
64832;SDS011;51290;45.060;38.948;2023-03-15T11:36:56;12.68;;;7.50;;
64832;SDS011;51290;45.060;38.948;2023-03-15T11:39:37;11.43;;;6.43;;
64832;SDS011;51290;45.060;38.948;2023-03-15T11:42:15;11.93;;;7.55;;
64832;SDS011;51290;45.060;38.948;2023-03-15T11:44:47;11.27;;;7.32;;
64832;SDS011;51290;45.060;38.948;2023-03-15T11:50:14;15.48;;;6.93;;
64832;SDS011;51290;45.060;38.948;2023-03-15T11:52:40;10.25;;;6.63;;
64832;SDS011;51290;45.060;38.948;2023-03-15T11:55:18;15.30;;;6.97;;
64832;SDS011;51290;45.060;38.948;2023-03-15T11:57:48;16.45;;;7.50;;
64832;SDS011;51290;45.060;38.948;2023-03-15T12:00:17;13.25;;;6.88;;
64832;SDS011;51290;45.060;38.948;2023-03-15T12:02:55;11.18;;;6.50;;
64832;SDS011;51290;45.060;38.948;2023-03-15T12:10:59;10.48;;;6.40;;
64832;SDS011;51290;45.060;38.948;2023-03-15T12:13:27;11.95;;;6.97;;
64832;SDS011;51290;45.060;38.948;2023-03-15T12:15:55;13.65;;;7.70;;
64832;SDS011;51290;45.060;38.948;2023-03-15T12:18:30;10.63;;;6.90;;
64832;SDS011;51290;45.060;38.948;2023-03-15T12:21:10;15.27;;;7.13;;
64832;SDS011;51290;45.060;38.948;2023-03-15T12:23:47;14.70;;;7.60;;
64832;SDS011;51290;45.060;38.948;2023-03-15T12:26:30;11.18;;;6.78;;
64832;SDS011;51290;45.060;38.948;2023-03-15T12:36:56;14.15;;;8.40;;
64832;SDS011;51290;45.060;38.948;2023-03-15T12:39:36;15.20;;;6.28;;
64832;SDS011;51290;45.060;38.948;2023-03-15T12:42:03;11.75;;;6.88;;
64832;SDS011;51290;45.060;38.948;2023-03-15T12:46:59;12.80;;;7.82;;
64832;SDS011;51290;45.060;38.948;2023-03-15T12:49:31;12.25;;;6.78;;
64832;SDS011;51290;45.060;38.948;2023-03-15T12:52:00;11.25;;;7.18;;
64832;SDS011;51290;45.060;38.948;2023-03-15T12:57:28;9.88;;;6.60;;
64832;SDS011;51290;45.060;38.948;2023-03-15T13:00:13;10.55;;;6.70;;
64832;SDS011;51290;45.060;38.948;2023-03-15T13:02:50;12.82;;;7.43;;
64832;SDS011;51290;45.060;38.948;2023-03-15T13:05:30;11.95;;;7.45;;
64832;SDS011;51290;45.060;38.948;2023-03-15T13:08:07;15.75;;;7.22;;
64832;SDS011;51290;45.060;38.948;2023-03-15T13:18:51;13.30;;;7.90;;
64832;SDS011;51290;45.060;38.948;2023-03-15T13:27:26;14.68;;;6.97;;
64832;SDS011;51290;45.060;38.948;2023-03-15T13:33:28;11.13;;;6.40;;
64832;SDS011;51290;45.060;38.948;2023-03-15T13:36:01;12.75;;;7.50;;
64832;SDS011;51290;45.060;38.948;2023-03-15T13:38:46;10.07;;;6.35;;
64832;SDS011;51290;45.060;38.948;2023-03-15T13:41:17;8.52;;;5.45;;
64832;SDS011;51290;45.060;38.948;2023-03-15T13:43:48;11.90;;;7.13;;
64832;SDS011;51290;45.060;38.948;2023-03-15T13:46:19;12.05;;;6.95;;
64832;SDS011;51290;45.060;38.948;2023-03-15T13:48:48;10.75;;;6.70;;
64832;SDS011;51290;45.060;38.948;2023-03-15T13:53:44;11.70;;;6.35;;
64832;SDS011;51290;45.060;38.948;2023-03-15T13:59:22;9.48;;;5.90;;
64832;SDS011;51290;45.060;38.948;2023-03-15T14:01:54;11.95;;;6.65;;
64832;SDS011;51290;45.060;38.948;2023-03-15T14:04:21;14.70;;;7.97;;
64832;SDS011;51290;45.060;38.948;2023-03-15T14:06:49;11.82;;;6.97;;
64832;SDS011;51290;45.060;38.948;2023-03-15T14:09:27;11.05;;;6.55;;
64832;SDS011;51290;45.060;38.948;2023-03-15T14:12:00;13.73;;;6.07;;
64832;SDS011;51290;45.060;38.948;2023-03-15T14:14:29;12.30;;;6.95;;
64832;SDS011;51290;45.060;38.948;2023-03-15T14:16:56;16.90;;;6.18;;
64832;SDS011;51290;45.060;38.948;2023-03-15T14:19:24;9.98;;;5.55;;
64832;SDS011;51290;45.060;38.948;2023-03-15T14:21:54;16.92;;;7.93;;
64832;SDS011;51290;45.060;38.948;2023-03-15T14:24:25;12.45;;;6.88;;
64832;SDS011;51290;45.060;38.948;2023-03-15T14:27:35;9.85;;;5.93;;
64832;SDS011;51290;45.060;38.948;2023-03-15T14:29:58;9.85;;;6.70;;
64832;SDS011;51290;45.060;38.948;2023-03-15T14:32:27;17.55;;;8.82;;
64832;SDS011;51290;45.060;38.948;2023-03-15T14:40:28;11.55;;;6.80;;
64832;SDS011;51290;45.060;38.948;2023-03-15T14:42:59;12.10;;;7.38;;
64832;SDS011;51290;45.060;38.948;2023-03-15T14:45:26;12.57;;;6.95;;
64832;SDS011;51290;45.060;38.948;2023-03-15T14:47:55;11.02;;;6.57;;
64832;SDS011;51290;45.060;38.948;2023-03-15T14:50:28;13.98;;;6.50;;
64832;SDS011;51290;45.060;38.948;2023-03-15T14:55:27;14.13;;;7.43;;
64832;SDS011;51290;45.060;38.948;2023-03-15T14:57:55;10.52;;;6.35;;
64832;SDS011;51290;45.060;38.948;2023-03-15T15:00:21;14.82;;;7.95;;
64832;SDS011;51290;45.060;38.948;2023-03-15T15:02:48;14.70;;;6.72;;
64832;SDS011;51290;45.060;38.948;2023-03-15T15:07:48;13.65;;;6.85;;
64832;SDS011;51290;45.060;38.948;2023-03-15T15:10:20;11.43;;;6.68;;
64832;SDS011;51290;45.060;38.948;2023-03-15T15:12:47;11.90;;;7.75;;
64832;SDS011;51290;45.060;38.948;2023-03-15T15:15:14;11.23;;;6.05;;
64832;SDS011;51290;45.060;38.948;2023-03-15T15:17:44;14.50;;;7.68;;
64832;SDS011;51290;45.060;38.948;2023-03-15T15:20:10;12.32;;;5.85;;
64832;SDS011;51290;45.060;38.948;2023-03-15T15:22:38;18.02;;;7.68;;
64832;SDS011;51290;45.060;38.948;2023-03-15T15:25:07;12.02;;;6.20;;
64832;SDS011;51290;45.060;38.948;2023-03-15T15:27:44;13.38;;;6.68;;
64832;SDS011;51290;45.060;38.948;2023-03-15T15:30:12;15.63;;;7.72;;
64832;SDS011;51290;45.060;38.948;2023-03-15T15:32:47;10.52;;;5.90;;
64832;SDS011;51290;45.060;38.948;2023-03-15T15:35:14;11.02;;;6.55;;
64832;SDS011;51290;45.060;38.948;2023-03-15T15:37:42;10.38;;;5.82;;
64832;SDS011;51290;45.060;38.948;2023-03-15T15:40:13;11.45;;;7.40;;
64832;SDS011;51290;45.060;38.948;2023-03-15T15:42:45;15.60;;;6.32;;
64832;SDS011;51290;45.060;38.948;2023-03-15T15:45:14;12.27;;;6.68;;
64832;SDS011;51290;45.060;38.948;2023-03-15T15:47:42;9.95;;;5.68;;
64832;SDS011;51290;45.060;38.948;2023-03-15T15:50:10;11.68;;;6.15;;
64832;SDS011;51290;45.060;38.948;2023-03-15T15:52:38;13.95;;;6.75;;
64832;SDS011;51290;45.060;38.948;2023-03-15T15:55:13;12.02;;;7.13;;
64832;SDS011;51290;45.060;38.948;2023-03-15T15:57:41;12.03;;;7.50;;
64832;SDS011;51290;45.060;38.948;2023-03-15T16:00:12;12.77;;;6.80;;
64832;SDS011;51290;45.060;38.948;2023-03-15T16:02:42;11.32;;;6.70;;
64832;SDS011;51290;45.060;38.948;2023-03-15T16:05:08;14.00;;;5.68;;
64832;SDS011;51290;45.060;38.948;2023-03-15T16:07:34;11.63;;;6.72;;
64832;SDS011;51290;45.060;38.948;2023-03-15T16:10:02;8.38;;;6.07;;
64832;SDS011;51290;45.060;38.948;2023-03-15T16:12:29;17.88;;;6.35;;
64832;SDS011;51290;45.060;38.948;2023-03-15T16:14:57;16.27;;;6.53;;
64832;SDS011;51290;45.060;38.948;2023-03-15T16:17:23;13.25;;;7.03;;
64832;SDS011;51290;45.060;38.948;2023-03-15T16:19:50;11.77;;;7.05;;
64832;SDS011;51290;45.060;38.948;2023-03-15T16:22:17;11.25;;;6.22;;